Time;durP1;ratioP1;P1;durP2;ratioP2;P2;SDS_P1;SDS_P2;PMS_P1;PMS_P2;Temp;Humidity;BMP_temperature;BMP_pressure;BME280_temperature;BME280_humidity;BME280_pressure;Samples;Min_cycle;Max_cycle;Signal;HPM_P1;HPM_P2
2023/04/28 00:02:09;;;;;;;9.80;3.35;;;9.80;1.00;10.50;93895.00;;;;7393934;19;20642;-76
2023/04/28 00:04:43;;;;;;;9.15;3.65;;;9.80;1.00;10.40;93912.00;;;;7397678;19;20128;-77
2023/04/28 00:07:12;;;;;;;5.70;2.90;;;9.70;1.00;10.30;93932.00;;;;7396958;19;20184;-76
2023/04/28 00:09:46;;;;;;;4.55;3.05;;;9.70;1.00;10.40;93926.00;;;;7396294;19;20151;-76
2023/04/28 00:12:21;;;;;;;4.90;3.00;;;9.70;1.00;10.40;93900.00;;;;7396351;19;20597;-79
2023/04/28 00:15:03;;;;;;;5.75;3.22;;;9.70;1.00;10.30;93894.00;;;;7396200;19;20196;-78
2023/04/28 00:17:37;;;;;;;6.88;3.22;;;9.70;1.00;10.10;93924.00;;;;7398172;19;20157;-78
2023/04/28 00:20:11;;;;;;;8.65;2.92;;;9.60;1.00;10.20;93922.00;;;;7396269;19;20153;-76
2023/04/28 00:22:39;;;;;;;5.18;2.70;;;9.60;1.00;10.20;93888.00;;;;7396247;19;20650;-78
2023/04/28 00:25:07;;;;;;;7.70;3.30;;;9.60;1.00;10.30;93921.00;;;;7395295;19;20148;-78
2023/04/28 00:27:41;;;;;;;4.13;3.03;;;9.60;1.00;10.20;93896.00;;;;7397337;19;20148;-78
2023/04/28 00:30:11;;;;;;;6.35;3.00;;;9.60;1.00;10.10;93876.00;;;;7397437;19;20154;-77
2023/04/28 00:32:47;;;;;;;4.15;2.75;;;9.60;1.00;10.00;93906.00;;;;7397869;19;20143;-77
2023/04/28 00:35:15;;;;;;;5.10;2.80;;;9.50;18.00;9.70;93891.00;;;;7391788;19;20652;-77
2023/04/28 00:37:48;;;;;;;6.00;2.55;;;9.40;42.90;9.80;93866.00;;;;7385622;19;20184;-79
2023/04/28 00:40:22;;;;;;;3.13;2.58;;;9.40;58.60;9.70;93906.00;;;;7395557;19;20173;-77
2023/04/28 00:42:49;;;;;;;3.40;2.42;;;9.40;74.60;10.20;93884.00;;;;7397095;19;20150;-79
2023/04/28 00:45:23;;;;;;;4.70;2.67;;;9.40;34.90;10.50;93889.00;;;;7396930;19;20230;-78
2023/04/28 00:47:50;;;;;;;5.13;2.40;;;9.60;25.60;10.70;93889.00;;;;7397163;19;20133;-80
2023/04/28 00:50:25;;;;;;;5.88;2.45;;;9.80;4.70;10.80;93890.00;;;;7395031;19;20170;-79
2023/04/28 00:52:53;;;;;;;4.28;2.15;;;9.90;1.00;11.10;93849.00;;;;7397781;19;20621;-78
2023/04/28 00:55:22;;;;;;;4.05;2.50;;;10.10;1.00;11.10;93837.00;;;;7393768;19;20149;-79
2023/04/28 00:57:59;;;;;;;5.22;2.38;;;10.20;1.00;11.10;93841.00;;;;7395642;19;20150;-79
2023/04/28 01:00:26;;;;;;;2.83;2.25;;;10.30;1.00;11.20;93872.00;;;;7394817;19;20165;-79
2023/04/28 01:03:00;;;;;;;6.28;2.47;;;10.30;1.00;11.30;93831.00;;;;7393783;19;20640;-77
2023/04/28 01:05:29;;;;;;;2.63;2.33;;;10.40;1.00;11.20;93871.00;;;;7393891;19;20613;-77
2023/04/28 01:08:03;;;;;;;3.25;2.15;;;10.50;1.00;11.40;93881.00;;;;7402693;19;20464;-78
2023/04/28 01:10:31;;;;;;;5.63;2.38;;;10.50;1.00;11.40;93835.00;;;;7402874;19;20133;-79
2023/04/28 01:13:05;;;;;;;3.97;2.63;;;10.50;1.00;11.20;93865.00;;;;7402525;19;20215;-79
2023/04/28 01:15:46;;;;;;;3.72;2.20;;;10.50;1.00;11.40;93857.00;;;;7401051;19;20141;-79
2023/04/28 01:18:15;;;;;;;5.03;2.25;;;10.50;1.00;11.50;93857.00;;;;7399451;19;20136;-78
2023/04/28 01:20:49;;;;;;;4.95;2.47;;;10.60;1.00;11.40;93849.00;;;;7402602;19;20129;-78
2023/04/28 01:23:19;;;;;;;2.88;2.10;;;10.60;1.00;11.40;93869.00;;;;7402464;19;20133;-77
2023/04/28 01:25:53;;;;;;;3.38;2.03;;;10.60;1.00;11.40;93864.00;;;;7401682;19;20117;-78
2023/04/28 01:28:20;;;;;;;4.28;2.13;;;10.60;1.00;11.30;93838.00;;;;7403367;19;20494;-77
2023/04/28 01:30:55;;;;;;;3.28;2.30;;;10.50;1.00;11.30;93844.00;;;;7403266;19;20509;-78
2023/04/28 01:33:29;;;;;;;3.92;2.60;;;10.50;1.00;11.30;93852.00;;;;7401901;19;20619;-78
2023/04/28 01:35:58;;;;;;;2.97;2.17;;;10.50;1.00;11.10;93854.00;;;;7399358;19;20133;-78
2023/04/28 01:38:33;;;;;;;5.28;2.40;;;10.40;1.00;11.20;93854.00;;;;7404316;19;20146;-79
2023/04/28 01:41:01;;;;;;;3.00;2.35;;;10.40;1.00;11.10;93860.00;;;;7403564;19;20133;-78
2023/04/28 01:43:35;;;;;;;3.35;2.33;;;10.40;1.00;11.20;93851.00;;;;7402888;19;20537;-77
2023/04/28 01:46:21;;;;;;;4.07;2.33;;;10.40;1.00;11.20;93860.00;;;;7402555;19;20204;-77
2023/04/28 01:48:55;;;;;;;3.58;2.03;;;10.40;1.00;11.20;93811.00;;;;7402513;19;20140;-77
2023/04/28 01:51:30;;;;;;;3.15;2.30;;;10.30;1.00;11.10;93839.00;;;;7401697;19;20129;-78
2023/04/28 01:54:04;;;;;;;4.38;2.53;;;10.30;16.10;11.10;93790.00;;;;7400723;19;20576;-79
2023/04/28 01:56:38;;;;;;;3.05;2.50;;;10.30;5.60;11.10;93768.00;;;;7401929;19;20154;-78
2023/04/28 01:59:05;;;;;;;3.50;2.40;;;10.30;22.90;11.00;93836.00;;;;7401991;19;20625;-78
2023/04/28 02:01:39;;;;;;;6.20;2.47;;;10.20;27.00;11.00;93827.00;;;;7401156;19;20640;-77
2023/04/28 02:04:07;;;;;;;3.75;2.50;;;10.20;36.30;11.10;93831.00;;;;7402739;19;20200;-78
2023/04/28 02:06:41;;;;;;;3.45;2.60;;;10.20;26.70;11.10;93787.00;;;;7399601;19;20148;-77
2023/04/28 02:09:10;;;;;;;3.13;2.22;;;10.20;20.80;11.20;93803.00;;;;7402709;19;20184;-79
2023/04/28 02:11:47;;;;;;;3.78;2.45;;;10.20;25.20;11.10;93834.00;;;;7400601;19;20144;-80
2023/04/28 02:14:22;;;;;;;3.45;2.53;;;10.20;18.80;11.10;93799.00;;;;7399736;19;20656;-78
2023/04/28 02:16:57;;;;;;;7.60;2.50;;;10.30;22.20;11.00;93822.00;;;;7399550;19;20139;-79
2023/04/28 02:19:31;;;;;;;4.32;2.60;;;10.20;32.00;11.00;93795.00;;;;7400372;19;20141;-77
2023/04/28 02:22:06;;;;;;;3.95;2.78;;;10.20;42.20;11.00;93790.00;;;;7401830;19;20128;-77
2023/04/28 02:24:36;;;;;;;3.28;2.67;;;10.20;38.30;10.90;93817.00;;;;7397957;19;20588;-76
2023/04/28 02:27:10;;;;;;;4.22;2.85;;;10.20;54.10;10.90;93814.00;;;;7400500;19;20196;-78
2023/04/28 02:29:37;;;;;;;4.45;2.50;;;10.20;50.30;11.00;93786.00;;;;7400874;19;20411;-77
2023/04/28 02:32:11;;;;;;;3.25;2.55;;;10.20;55.40;10.80;93827.00;;;;7401137;19;20191;-77
2023/04/28 02:34:45;;;;;;;3.25;2.58;;;10.20;93.30;10.80;93837.00;;;;7400110;19;20137;-80
2023/04/28 02:37:20;;;;;;;2.97;2.38;;;10.10;99.90;10.60;93850.00;;;;7399447;19;20125;-76
2023/04/28 02:39:55;;;;;;;2.83;2.38;;;10.10;99.90;10.60;93842.00;;;;7400806;19;20146;-77
2023/04/28 02:42:22;;;;;;;4.85;2.25;;;10.00;99.90;10.60;93846.00;;;;7400951;19;20532;-79
2023/04/28 02:44:56;;;;;;;3.60;2.65;;;10.10;99.90;10.60;93792.00;;;;7399091;19;20606;-80
2023/04/28 02:47:30;;;;;;;3.92;2.13;;;10.00;99.90;10.50;93831.00;;;;7401246;19;20197;-78
2023/04/28 02:49:57;;;;;;;3.90;2.42;;;10.00;99.90;10.50;93848.00;;;;7399067;19;20132;-78
2023/04/28 02:52:31;;;;;;;4.03;2.10;;;10.00;99.90;10.40;93813.00;;;;7400808;19;20129;-78
2023/04/28 02:54:58;;;;;;;4.93;2.65;;;10.00;99.90;10.50;93800.00;;;;7398646;19;20156;-77
2023/04/28 02:57:34;;;;;;;6.45;2.22;;;9.90;99.90;10.50;93803.00;;;;7399428;19;20152;-76
2023/04/28 03:00:08;;;;;;;3.83;2.60;;;9.90;99.90;10.40;93836.00;;;;7399594;19;20175;-79
2023/04/28 03:02:42;;;;;;;4.82;2.40;;;9.90;99.90;10.30;93784.00;;;;7396825;19;20183;-78
2023/04/28 03:05:09;;;;;;;3.88;2.40;;;9.80;99.90;10.20;93828.00;;;;7399954;19;20140;-77
2023/04/28 03:07:43;;;;;;;2.92;2.30;;;9.70;99.90;10.10;93828.00;;;;7399924;19;20640;-78
2023/04/28 03:10:18;;;;;;;2.65;2.17;;;9.60;99.90;10.10;93828.00;;;;7398635;19;20129;-77
2023/04/28 03:12:45;;;;;;;3.85;2.10;;;9.60;99.90;10.10;93812.00;;;;7399657;19;20201;-80
2023/04/28 03:15:25;;;;;;;3.85;1.98;;;9.50;99.90;10.00;93820.00;;;;7397009;19;20164;-77
2023/04/28 03:17:59;;;;;;;3.10;2.45;;;9.50;99.90;9.90;93804.00;;;;7399488;19;20153;-78
2023/04/28 03:20:33;;;;;;;3.75;2.00;;;9.40;99.90;9.80;93782.00;;;;7398752;19;20211;-79
2023/04/28 03:23:07;;;;;;;3.58;2.13;;;9.40;99.90;9.80;93777.00;;;;7397829;19;20136;-77
2023/04/28 03:25:42;;;;;;;3.50;2.10;;;9.40;99.90;9.80;93768.00;;;;7397475;19;20129;-78
2023/04/28 03:28:16;;;;;;;5.25;2.08;;;9.30;1.00;9.70;93820.00;;;;7397979;19;20140;-79
2023/04/28 03:30:50;;;;;;;2.33;1.95;;;9.30;1.00;10.00;93816.00;;;;7398031;19;20601;-80
2023/04/28 03:33:26;;;;;;;3.25;2.20;;;9.30;1.00;10.00;93807.00;;;;7398494;19;20124;-77
2023/04/28 03:35:53;;;;;;;2.70;1.80;;;9.30;1.00;10.40;93805.00;;;;7394510;19;20125;-77
2023/04/28 03:38:21;;;;;;;1.90;1.80;;;9.40;99.90;10.40;93800.00;;;;7399520;19;20133;-76
2023/04/28 03:40:56;;;;;;;2.00;1.80;;;9.60;99.90;10.80;93794.00;;;;7398800;19;20501;-84
2023/04/28 03:43:32;;;;;;;2.38;1.85;;;9.80;99.90;11.00;93781.00;;;;7399207;19;20184;-83
2023/04/28 03:46:07;;;;;;;3.45;1.90;;;10.00;99.90;11.20;93761.00;;;;7401556;19;20183;-86
2023/04/28 03:48:41;;;;;;;3.35;1.88;;;10.20;99.90;11.20;93790.00;;;;7402446;19;20133;-82
2023/04/28 03:51:08;;;;;;;3.78;1.92;;;10.30;99.90;11.00;93771.00;;;;7401550;19;20496;-83
2023/04/28 03:53:42;;;;;;;4.05;2.10;;;10.30;99.90;11.00;93776.00;;;;7402328;19;20144;-84
2023/04/28 03:56:10;;;;;;;2.70;2.00;;;10.30;99.90;10.90;93767.00;;;;7395591;19;20200;-82
2023/04/28 03:58:45;;;;;;;3.72;2.17;;;10.30;99.90;10.90;93794.00;;;;7397447;19;20148;-84
2023/04/28 04:01:12;;;;;;;4.28;2.20;;;10.30;99.90;10.90;93760.00;;;;7397182;19;20619;-83
2023/04/28 04:03:48;;;;;;;6.90;2.00;;;10.30;99.90;11.00;93777.00;;;;7397218;19;20147;-83
2023/04/28 04:06:23;;;;;;;4.05;1.95;;;10.30;99.90;11.10;93764.00;;;;7397421;19;20177;-83
2023/04/28 04:08:57;;;;;;;4.57;1.95;;;10.30;99.90;11.10;93727.00;;;;7395461;19;20148;-85
2023/04/28 04:11:32;;;;;;;3.40;2.17;;;10.20;99.90;11.00;93722.00;;;;7399267;19;20143;-85
2023/04/28 04:14:15;;;;;;;2.53;2.03;;;10.30;99.90;11.20;93739.00;;;;7395414;19;20176;-83
2023/04/28 04:16:42;;;;;;;3.42;2.05;;;10.30;1.00;11.20;93643.00;;;;7394894;19;20128;-85
2023/04/28 04:19:25;;;;;;;2.83;2.00;;;10.40;1.00;11.30;93750.00;;;;7396203;19;20608;-84
2023/04/28 04:21:52;;;;;;;3.28;2.00;;;10.40;1.00;11.30;93757.00;;;;7396209;19;20655;-84
2023/04/28 04:24:30;;;;;;;3.30;1.88;;;10.50;1.00;11.30;93737.00;;;;7396043;19;20192;-82
2023/04/28 04:27:04;;;;;;;3.22;1.80;;;10.50;1.00;11.30;93754.00;;;;7396492;19;20161;-84
2023/04/28 04:29:39;;;;;;;1.92;1.73;;;10.50;1.00;11.40;93702.00;;;;7395395;19;20156;-84
2023/04/28 04:32:06;;;;;;;4.57;1.95;;;10.50;1.00;11.30;93722.00;;;;7394060;19;20199;-85
2023/04/28 04:34:40;;;;;;;3.15;1.90;;;10.50;1.00;11.30;93690.00;;;;7389413;19;20182;-82
2023/04/28 04:37:09;;;;;;;4.43;2.00;;;10.50;1.00;11.40;93715.00;;;;7396039;19;20483;-79
2023/04/28 04:39:44;;;;;;;2.55;2.00;;;10.50;1.00;11.00;93746.00;;;;7391536;19;20136;-78
2023/04/28 04:42:11;;;;;;;3.40;1.70;;;10.40;1.00;10.70;93755.00;;;;7399213;19;20144;-82
2023/04/28 04:44:51;;;;;;;3.30;2.00;;;10.40;1.00;10.90;93700.00;;;;7405730;19;20223;-87
2023/04/28 04:47:25;;;;;;;2.30;1.90;;;10.20;99.90;10.70;93761.00;;;;7407550;19;20138;-85
2023/04/28 04:49:52;;;;;;;2.88;1.90;;;10.10;99.90;10.80;93720.00;;;;7403345;19;20628;-85
2023/04/28 04:52:26;;;;;;;3.40;1.88;;;10.10;99.90;10.70;93753.00;;;;7407365;19;20129;-83
2023/04/28 04:55:00;;;;;;;4.45;1.90;;;10.00;1.00;10.80;93760.00;;;;7407913;19;20146;-86
2023/04/28 04:57:27;;;;;;;2.35;2.03;;;9.90;1.00;10.90;93712.00;;;;7405427;19;20608;-80
2023/04/28 05:00:01;;;;;;;1.98;1.60;;;10.00;1.00;11.00;93753.00;;;;7407457;19;20133;-81
2023/04/28 05:02:29;;;;;;;3.83;2.00;;;10.00;1.00;10.90;93747.00;;;;7402616;19;20602;-86
2023/04/28 05:05:05;;;;;;;3.05;2.20;;;10.10;1.00;11.10;93691.00;;;;7405337;19;20624;-84
2023/04/28 05:07:48;;;;;;;2.58;1.98;;;10.10;1.00;11.10;93744.00;;;;7404676;19;20220;-82
2023/04/28 05:10:23;;;;;;;4.13;2.15;;;10.20;1.00;11.10;93764.00;;;;7406653;19;20604;-79
2023/04/28 05:13:09;;;;;;;3.53;2.10;;;10.20;1.00;11.20;93751.00;;;;7392339;19;20151;-80
2023/04/28 05:15:43;;;;;;;7.72;2.53;;;10.20;1.00;11.10;93771.00;;;;7373719;19;20259;-81
2023/04/28 05:18:21;;;;;;;4.97;2.38;;;10.30;1.00;11.20;93753.00;;;;7388577;19;20140;-81
2023/04/28 05:20:55;;;;;;;3.10;2.00;;;10.30;1.00;11.20;93719.00;;;;7389797;19;21809;-80
2023/04/28 05:23:29;;;;;;;2.92;2.10;;;10.30;99.90;11.10;93752.00;;;;7387418;19;20137;-81
2023/04/28 05:25:57;;;;;;;2.97;1.92;;;10.30;99.90;11.00;93756.00;;;;7388101;19;20140;-82
2023/04/28 05:28:31;;;;;;;2.53;2.10;;;10.30;1.00;11.00;93725.00;;;;7383542;19;20144;-81
2023/04/28 05:31:05;;;;;;;5.97;2.63;;;10.30;1.00;11.00;93720.00;;;;7388548;19;20573;-79
2023/04/28 05:33:33;;;;;;;2.40;2.20;;;10.20;1.00;10.90;93718.00;;;;7386881;19;20188;-80
2023/04/28 05:36:07;;;;;;;2.55;2.13;;;10.20;1.00;10.80;93757.00;;;;7388418;19;20128;-83
2023/04/28 05:38:37;;;;;;;6.20;2.22;;;10.10;1.00;10.90;93693.00;;;;7389206;19;20613;-81
2023/04/28 05:41:11;;;;;;;4.10;2.40;;;10.10;99.90;10.70;93744.00;;;;7389986;19;20152;-81
2023/04/28 05:43:46;;;;;;;4.68;2.90;;;10.10;99.90;10.70;93741.00;;;;7388334;19;20129;-79
2023/04/28 05:46:21;;;;;;;3.28;2.53;;;9.90;1.00;10.60;93755.00;;;;7387247;19;20157;-82
2023/04/28 05:48:55;;;;;;;5.00;2.83;;;9.90;1.00;10.50;93754.00;;;;7388902;19;20132;-77
2023/04/28 05:51:49;;;;;;;4.88;2.67;;;9.80;99.90;10.40;93711.00;;;;7387724;19;21002;-77
2023/04/28 05:54:25;;;;;;;2.95;2.60;;;9.70;99.90;10.30;93753.00;;;;7386945;19;20176;-80
2023/04/28 05:57:00;;;;;;;5.20;2.78;;;9.70;1.00;10.20;93721.00;;;;7388549;19;20124;-81
2023/04/28 05:59:34;;;;;;;2.95;2.28;;;9.70;99.90;10.40;93716.00;;;;7388147;19;20641;-81
2023/04/28 06:02:11;;;;;;;2.95;2.45;;;9.70;99.90;10.40;93676.00;;;;7386435;19;20695;-82
2023/04/28 06:04:48;;;;;;;2.60;2.40;;;9.70;1.00;10.40;93743.00;;;;7386664;19;20193;-80
2023/04/28 06:07:23;;;;;;;5.00;2.80;;;9.70;1.00;10.30;93755.00;;;;7384772;19;20134;-77
2023/04/28 06:09:59;;;;;;;3.85;2.40;;;9.70;99.90;10.40;93768.00;;;;7386401;19;20136;-76
2023/04/28 06:12:36;;;;;;;3.05;2.50;;;9.70;99.90;10.50;93750.00;;;;7387452;19;20188;-77
2023/04/28 06:15:11;;;;;;;4.90;2.80;;;9.80;99.90;10.70;93746.00;;;;7387621;19;20565;-78
2023/04/28 06:17:45;;;;;;;3.17;2.05;;;9.90;99.90;10.70;93711.00;;;;7384717;19;20172;-76
2023/04/28 06:20:13;;;;;;;2.85;2.28;;;9.90;1.00;10.80;93740.00;;;;7386955;19;20133;-75
2023/04/28 06:22:46;;;;;;;3.22;2.72;;;9.90;1.00;10.70;93733.00;;;;7388155;19;20142;-75
2023/04/28 06:25:26;;;;;;;3.88;2.88;;;10.00;1.00;10.70;93748.00;;;;7386229;19;20141;-76
2023/04/28 06:28:07;;;;;;;7.38;3.33;;;10.00;1.00;10.60;93730.00;;;;7385200;19;20129;-76
2023/04/28 06:30:41;;;;;;;4.38;3.20;;;9.90;99.90;10.60;93752.00;;;;7385547;19;20185;-78
2023/04/28 06:33:15;;;;;;;4.03;2.90;;;9.80;99.90;10.60;93740.00;;;;7381691;19;20153;-77
2023/04/28 06:35:42;;;;;;;7.85;3.03;;;9.70;1.00;10.60;93697.00;;;;7384185;19;20124;-78
2023/04/28 06:38:18;;;;;;;6.53;3.35;;;9.80;1.00;10.50;93715.00;;;;7386508;19;20719;-77
2023/04/28 06:40:45;;;;;;;3.75;3.13;;;9.80;1.00;10.50;93712.00;;;;7390875;19;20125;-78
2023/04/28 06:43:19;;;;;;;5.20;3.42;;;9.90;1.00;10.60;93730.00;;;;7384981;19;20154;-77
2023/04/28 06:45:47;;;;;;;5.05;3.70;;;9.90;1.00;10.60;93702.00;;;;7384709;19;20148;-76
2023/04/28 06:48:14;;;;;;;3.83;3.30;;;9.90;1.00;10.80;93742.00;;;;7384212;19;20141;-78
2023/04/28 06:50:49;;;;;;;5.20;3.35;;;10.00;1.00;10.80;93710.00;;;;7385181;19;20770;-78
2023/04/28 06:53:23;;;;;;;2.80;2.60;;;10.10;1.00;11.00;93725.00;;;;7386463;19;20192;-75
2023/04/28 06:55:57;;;;;;;2.67;2.30;;;10.20;1.00;10.90;93738.00;;;;7384855;19;20220;-77
2023/04/28 06:58:25;;;;;;;2.63;2.42;;;10.20;1.00;11.00;93734.00;;;;7386252;19;20482;-78
2023/04/28 07:00:59;;;;;;;2.40;1.85;;;10.20;1.00;11.00;93741.00;;;;7383068;19;20208;-77
2023/04/28 07:03:26;;;;;;;1.90;1.70;;;10.20;1.00;11.00;93698.00;;;;7381287;19;20569;-77
2023/04/28 07:06:02;;;;;;;2.30;2.10;;;10.30;17.50;11.00;93689.00;;;;7383727;19;20207;-78
2023/04/28 07:08:36;;;;;;;2.00;1.80;;;10.40;55.50;11.00;93724.00;;;;7384485;19;20144;-78
2023/04/28 07:11:11;;;;;;;1.90;1.45;;;10.40;87.10;11.00;93729.00;;;;7382797;19;20655;-78
2023/04/28 07:13:38;;;;;;;2.10;1.85;;;10.40;99.90;11.10;93723.00;;;;7382646;19;20204;-77
2023/04/28 07:16:12;;;;;;;2.05;1.60;;;10.40;99.90;11.10;93744.00;;;;7382752;19;20584;-75
2023/04/28 07:18:39;;;;;;;1.95;1.58;;;10.40;99.90;11.10;93711.00;;;;7385708;19;20734;-78
2023/04/28 07:21:13;;;;;;;1.63;1.52;;;10.50;99.90;11.10;93705.00;;;;7384243;19;20587;-79
2023/04/28 07:23:40;;;;;;;1.83;1.45;;;10.40;99.90;11.20;93735.00;;;;7380761;19;20476;-78
2023/04/28 07:26:15;;;;;;;1.65;1.55;;;10.50;99.90;11.20;93710.00;;;;7384899;19;20125;-77
2023/04/28 07:28:43;;;;;;;2.28;1.70;;;10.50;99.90;11.20;93737.00;;;;7384943;19;20147;-76
2023/04/28 07:31:17;;;;;;;1.50;1.40;;;10.50;99.90;11.30;93703.00;;;;7388202;19;20639;-80
2023/04/28 07:33:44;;;;;;;2.05;1.58;;;10.50;99.90;11.20;93723.00;;;;7392458;19;20144;-82
2023/04/28 07:36:18;;;;;;;1.50;1.40;;;10.50;99.90;11.10;93718.00;;;;7393844;19;20196;-82
2023/04/28 07:38:53;;;;;;;2.03;1.63;;;10.50;99.90;11.10;93732.00;;;;7393291;19;20156;-81
2023/04/28 07:41:27;;;;;;;1.90;1.50;;;10.50;99.90;11.00;93742.00;;;;7388580;19;20469;-85
2023/04/28 07:44:01;;;;;;;2.13;1.60;;;10.50;99.90;11.00;93709.00;;;;7389216;19;20144;-84
2023/04/28 07:46:35;;;;;;;1.85;1.60;;;10.50;99.90;11.00;93732.00;;;;7386902;19;21017;-82
2023/04/28 07:49:03;;;;;;;1.95;1.65;;;10.50;99.90;11.20;93717.00;;;;7386543;19;20200;-78
2023/04/28 07:51:37;;;;;;;1.60;1.50;;;10.50;99.90;11.10;93731.00;;;;7383646;19;20155;-81
2023/04/28 07:54:04;;;;;;;2.33;1.80;;;10.50;99.90;11.20;93733.00;;;;7385282;19;20145;-83
2023/04/28 07:56:38;;;;;;;2.17;1.80;;;10.50;99.90;11.10;93739.00;;;;7382634;19;20153;-80
2023/04/28 07:59:12;;;;;;;1.73;1.55;;;10.50;99.90;11.00;93763.00;;;;7388694;19;20558;-81
2023/04/28 08:01:41;;;;;;;1.65;1.48;;;10.50;99.90;11.10;93763.00;;;;7384560;19;20157;-81
2023/04/28 08:04:15;;;;;;;1.95;1.60;;;10.50;99.90;11.10;93733.00;;;;7384605;19;20528;-82
2023/04/28 08:06:44;;;;;;;1.75;1.50;;;10.50;99.90;11.10;93762.00;;;;7383060;19;20144;-79
2023/04/28 08:09:19;;;;;;;3.35;1.42;;;10.50;99.90;11.20;93750.00;;;;7384846;19;20451;-80
2023/04/28 08:11:46;;;;;;;2.05;1.50;;;10.50;99.90;11.30;93774.00;;;;7383457;19;20506;-77
2023/04/28 08:14:28;;;;;;;1.20;1.10;;;10.50;99.90;11.30;93729.00;;;;7382026;19;20179;-78
2023/04/28 08:16:56;;;;;;;1.30;1.20;;;10.60;99.90;11.40;93743.00;;;;7388370;19;20132;-79
2023/04/28 08:19:30;;;;;;;2.97;1.27;;;10.60;1.00;11.60;93733.00;;;;7389004;19;20166;-77
2023/04/28 08:22:06;;;;;;;1.00;1.00;;;10.80;1.00;11.70;93747.00;;;;7389358;19;20156;-78
2023/04/28 08:24:41;;;;;;;1.15;1.10;;;10.90;1.00;11.70;93771.00;;;;7384626;19;20164;-76
2023/04/28 08:27:15;;;;;;;0.80;0.80;;;11.00;1.00;11.90;93742.00;;;;7388852;19;20518;-74
2023/04/28 08:29:49;;;;;;;1.05;0.70;;;11.20;1.00;12.10;93765.00;;;;7390138;19;20148;-75
2023/04/28 08:32:24;;;;;;;0.63;0.63;;;11.30;1.00;11.90;93780.00;;;;7387908;19;20163;-75
2023/04/28 08:34:53;;;;;;;2.10;0.60;;;11.50;1.00;12.20;93776.00;;;;7386507;19;20605;-74
2023/04/28 08:37:31;;;;;;;2.00;0.70;;;11.60;1.00;12.40;93785.00;;;;7387245;19;20148;-77
2023/04/28 08:40:01;;;;;;;0.90;0.60;;;11.70;1.00;12.40;93773.00;;;;7384007;19;20128;-78
2023/04/28 08:42:47;;;;;;;0.50;0.50;;;11.70;99.90;12.30;93787.00;;;;7388021;19;20200;-76
2023/04/28 08:45:24;;;;;;;0.50;0.50;;;11.70;99.90;12.30;93792.00;;;;7386378;19;20149;-75
2023/04/28 08:48:03;;;;;;;1.83;1.00;;;11.70;99.90;12.10;93789.00;;;;7388721;19;20588;-76
2023/04/28 08:50:42;;;;;;;0.50;0.50;;;11.70;99.90;12.10;93782.00;;;;7389277;19;20133;-76
2023/04/28 08:53:13;;;;;;;0.50;0.50;;;11.80;99.90;12.10;93787.00;;;;7386549;19;20210;-75
2023/04/28 08:55:55;;;;;;;0.52;0.52;;;11.80;99.90;12.00;93813.00;;;;7386974;19;20129;-75
2023/04/28 08:58:25;;;;;;;0.57;0.47;;;11.70;99.90;12.00;93787.00;;;;7386862;19;20712;-75
2023/04/28 09:01:01;;;;;;;0.60;0.43;;;11.70;99.90;12.20;93760.00;;;;7386672;19;20156;-75
2023/04/28 09:03:35;;;;;;;0.93;0.60;;;11.70;99.90;12.30;93812.00;;;;7387487;19;20152;-74
2023/04/28 09:06:03;;;;;;;1.75;0.77;;;11.80;99.90;12.30;93776.00;;;;7388359;19;20625;-76
2023/04/28 09:08:37;;;;;;;2.05;0.70;;;11.80;99.90;12.20;93806.00;;;;7386337;19;20136;-74
2023/04/28 09:11:07;;;;;;;2.13;0.63;;;11.90;99.90;12.50;93758.00;;;;7387110;19;20137;-74
2023/04/28 09:13:50;;;;;;;8.23;4.63;;;12.00;99.90;12.30;93818.00;;;;7386559;19;20190;-76
2023/04/28 09:16:40;;;;;;;2.58;0.65;;;12.00;99.90;12.60;93800.00;;;;7388192;19;20634;-75
2023/04/28 09:19:16;;;;;;;3.00;2.25;;;12.00;1.00;12.40;93818.00;;;;7388353;19;20188;-75
2023/04/28 09:22:02;;;;;;;0.60;0.60;;;12.20;1.00;12.50;93770.00;;;;7386103;19;20153;-75
2023/04/28 09:24:54;;;;;;;0.57;0.57;;;12.20;1.00;12.70;93803.00;;;;7383411;19;20625;-76
2023/04/28 09:27:28;;;;;;;0.70;0.70;;;12.30;1.00;12.50;93781.00;;;;7386284;19;20165;-80
2023/04/28 09:30:09;;;;;;;0.70;0.70;;;12.50;1.00;13.10;93761.00;;;;7387201;19;20129;-74
2023/04/28 09:32:36;;;;;;;0.40;0.40;;;12.50;1.00;13.10;93777.00;;;;7385898;19;20150;-76
2023/04/28 09:35:10;;;;;;;1.20;0.60;;;12.70;1.00;13.20;93768.00;;;;7384090;19;20616;-77
2023/04/28 09:37:44;;;;;;;0.50;0.50;;;12.70;99.90;13.40;93802.00;;;;7373807;19;20129;-76
2023/04/28 09:40:12;;;;;;;0.50;0.50;;;12.80;99.90;13.30;93797.00;;;;7373624;19;20141;-75
2023/04/28 09:42:46;;;;;;;2.60;0.93;;;12.80;99.90;13.30;93811.00;;;;7375478;19;20133;-75
2023/04/28 09:45:16;;;;;;;0.50;0.50;;;12.90;99.90;13.60;93805.00;;;;7376822;19;20486;-74
2023/04/28 09:47:51;;;;;;;0.40;0.40;;;13.00;99.90;13.20;93806.00;;;;7375814;19;20504;-79
2023/04/28 09:50:25;;;;;;;0.50;0.50;;;12.90;99.90;13.80;93785.00;;;;7375832;19;20159;-78
2023/04/28 09:53:02;;;;;;;0.73;0.73;;;13.00;99.90;13.70;93776.00;;;;7376546;19;20608;-75
2023/04/28 09:55:33;;;;;;;1.98;0.40;;;13.20;99.90;14.10;93804.00;;;;7375925;19;20140;-79
2023/04/28 09:58:07;;;;;;;0.50;0.47;;;13.40;1.00;14.10;93813.00;;;;7376152;19;20143;-78
2023/04/28 10:00:37;;;;;;;0.65;0.65;;;13.30;1.00;13.40;93803.00;;;;7376829;19;20159;-75
2023/04/28 10:03:16;;;;;;;0.50;0.50;;;13.20;1.00;13.40;93807.00;;;;7377968;19;20632;-76
2023/04/28 10:05:57;;;;;;;0.47;0.47;;;13.30;1.00;13.90;93808.00;;;;7375286;19;20162;-75
2023/04/28 10:08:31;;;;;;;0.38;0.38;;;13.20;1.00;14.00;93763.00;;;;7374495;19;20145;-76
2023/04/28 10:11:06;;;;;;;0.55;0.52;;;13.40;1.00;14.80;93763.00;;;;7375387;19;20157;-77
2023/04/28 10:13:49;;;;;;;1.13;0.45;;;13.60;1.00;14.50;93797.00;;;;7375244;19;20146;-75
2023/04/28 10:16:28;;;;;;;0.57;0.57;;;14.20;99.90;15.90;93767.00;;;;7374636;19;20125;-77
2023/04/28 10:19:03;;;;;;;0.57;0.57;;;14.50;99.90;15.70;93798.00;;;;7369111;19;20153;-76
2023/04/28 10:21:56;;;;;;;0.75;0.40;;;14.90;99.90;15.90;93770.00;;;;7373791;19;20512;-79
2023/04/28 10:25:22;;;;;;;1.63;0.60;;;15.20;99.90;17.10;93782.00;;;;7373987;19;20156;-76
2023/04/28 10:27:59;;;;;;;0.88;0.47;;;15.80;99.90;17.40;93766.00;;;;7372922;19;20620;-78
2023/04/28 10:30:27;;;;;;;1.25;0.70;;;16.10;1.00;17.60;93761.00;;;;7375948;19;20125;-76
2023/04/28 10:33:16;;;;;;;1.10;0.50;;;16.50;99.90;16.70;93756.00;;;;7373434;19;20476;-81
2023/04/28 10:35:47;;;;;;;1.65;0.40;;;16.60;99.90;16.60;93754.00;;;;7375721;19;20125;-78
2023/04/28 10:38:21;;;;;;;0.50;0.50;;;16.80;99.90;16.90;93778.00;;;;7371744;19;20623;-74
2023/04/28 10:40:53;;;;;;;0.82;0.40;;;16.70;99.90;16.60;93794.00;;;;7374634;19;20137;-81
2023/04/28 10:43:31;;;;;;;0.70;0.70;;;16.40;99.90;16.40;93791.00;;;;7373615;19;20509;-78
2023/04/28 10:46:08;;;;;;;0.50;0.50;;;16.30;99.90;16.30;93790.00;;;;7374494;19;20474;-75
2023/04/28 10:48:47;;;;;;;1.05;0.65;;;16.40;99.90;16.40;93785.00;;;;7375329;19;20132;-78
2023/04/28 10:51:23;;;;;;;0.40;0.40;;;16.30;1.00;17.90;93769.00;;;;7375196;19;20592;-78
2023/04/28 10:53:53;;;;;;;1.17;0.50;;;16.50;7.10;18.00;93788.00;;;;7373475;19;20624;-76
2023/04/28 10:56:26;;;;;;;0.70;0.50;;;16.50;1.00;16.90;93761.00;;;;7374986;19;21596;-76
2023/04/28 10:59:26;;;;;;;0.68;0.68;;;16.50;1.00;16.80;93799.00;;;;7373741;19;20457;-76
2023/04/28 11:01:53;;;;;;;1.17;0.68;;;16.80;1.00;17.70;93778.00;;;;7372968;19;20632;-74
2023/04/28 11:04:27;;;;;;;0.35;0.35;;;16.60;1.00;17.40;93786.00;;;;7373596;19;20145;-76
2023/04/28 11:07:15;;;;;;;0.70;0.70;;;16.40;1.00;16.40;93814.00;;;;7373344;19;20796;-75
2023/04/28 11:09:51;;;;;;;2.30;1.40;;;16.40;99.90;16.00;93788.00;;;;7372301;19;20154;-76
2023/04/28 11:12:19;;;;;;;1.23;0.60;;;15.70;1.00;16.40;93786.00;;;;7372104;19;20479;-74
2023/04/28 11:15:00;;;;;;;0.60;0.60;;;15.80;1.00;16.60;93756.00;;;;7371338;19;20615;-74
2023/04/28 11:17:40;;;;;;;0.80;0.80;;;16.00;1.00;16.60;93786.00;;;;7372243;19;20135;-75
2023/04/28 11:20:22;;;;;;;0.43;0.43;;;16.30;1.00;17.20;93800.00;;;;7370079;19;20125;-78
2023/04/28 11:22:56;;;;;;;0.80;0.40;;;16.70;99.90;17.40;93771.00;;;;7373521;19;20603;-76
2023/04/28 11:25:24;;;;;;;4.47;0.60;;;16.60;99.90;17.20;93780.00;;;;7371134;19;20217;-73
2023/04/28 11:28:07;;;;;;;1.08;0.95;;;16.30;1.00;17.10;93806.00;;;;7373556;19;20124;-75
2023/04/28 11:30:36;;;;;;;1.23;0.65;;;16.20;1.00;16.80;93809.00;;;;7370895;19;20537;-74